createdAt,value
2018-09-12T00:00:03.621Z,48.62
2018-09-12T00:05:03.624Z,45.24
2018-09-12T00:10:03.626Z,46.76
2018-09-12T00:15:03.623Z,48.21
2018-09-12T00:20:03.649Z,44.1
2018-09-12T00:25:03.627Z,43.02
2018-09-12T00:30:03.632Z,37.06
2018-09-12T00:35:03.650Z,41.66
2018-09-12T00:40:03.635Z,40.25
2018-09-12T00:45:03.644Z,41.7
2018-09-12T00:50:03.653Z,43.53
2018-09-12T00:55:03.640Z,41.86
2018-09-12T01:00:03.645Z,45.44
2018-09-12T01:05:03.657Z,46.39
2018-09-12T01:10:03.649Z,48.97
2018-09-12T01:15:03.653Z,45.72
2018-09-12T01:20:03.667Z,46.91
2018-09-12T01:25:03.661Z,52.28
2018-09-12T01:30:03.667Z,47.36
2018-09-12T01:35:03.723Z,50.15
2018-09-12T01:40:03.690Z,52.36
2018-09-12T01:45:03.676Z,56.51
2018-09-12T01:50:03.698Z,53.69
2018-09-12T01:55:03.673Z,54.61
2018-09-12T02:00:03.691Z,55.58
2018-09-12T02:05:03.690Z,56.77
2018-09-12T02:10:03.705Z,58.06
2018-09-12T02:15:03.690Z,58.7
2018-09-12T02:20:03.698Z,65.42
2018-09-12T02:25:03.710Z,66.93
2018-09-12T02:30:03.718Z,70.71
2018-09-12T02:35:03.722Z,70.05
2018-09-12T02:40:03.707Z,70.56
2018-09-12T02:45:03.708Z,71.91
2018-09-12T02:50:03.719Z,71.41
2018-09-12T02:55:03.717Z,75.74
2018-09-12T03:00:03.729Z,74.9
2018-09-12T03:05:03.725Z,77.55
2018-09-12T03:10:03.816Z,78.15
2018-09-12T03:15:03.720Z,82.44
2018-09-12T03:20:03.746Z,87.65
2018-09-12T03:25:03.744Z,96.21
2018-09-12T03:30:03.742Z,104.43
2018-09-12T03:35:03.748Z,107.16
2018-09-12T03:40:03.732Z,108.75
2018-09-12T03:45:03.738Z,115.24
2018-09-12T03:50:03.756Z,119
2018-09-12T03:55:03.750Z,119
2018-09-12T04:00:03.746Z,119
2018-09-12T04:05:03.752Z,119
2018-09-12T04:10:03.772Z,119
2018-09-12T04:15:03.781Z,119
2018-09-12T04:20:03.763Z,119
2018-09-12T04:25:03.770Z,119
2018-09-12T04:30:03.764Z,119
2018-09-12T04:35:03.829Z,119
2018-09-12T04:40:03.822Z,119
2018-09-12T04:45:03.778Z,119
2018-09-12T04:50:03.794Z,119
2018-09-12T04:55:03.779Z,119
2018-09-12T05:00:03.779Z,119
2018-09-12T05:05:03.838Z,119
2018-09-12T05:10:03.909Z,119
2018-09-12T05:15:03.809Z,119
2018-09-12T05:20:03.792Z,119
2018-09-12T05:25:03.790Z,119
2018-09-12T05:30:03.798Z,119
2018-09-12T05:35:03.808Z,119
2018-09-12T05:40:03.800Z,119
2018-09-12T05:45:03.811Z,119
2018-09-12T05:50:03.841Z,119
2018-09-12T05:55:03.813Z,119
2018-09-12T06:00:03.808Z,119
2018-09-12T06:05:03.829Z,119
2018-09-12T06:10:03.811Z,119
2018-09-12T06:15:03.814Z,119
2018-09-12T06:20:03.823Z,119
2018-09-12T06:25:03.833Z,119
2018-09-12T06:30:03.824Z,119
2018-09-12T06:35:03.832Z,119
2018-09-12T06:40:03.875Z,119
2018-09-12T06:45:03.836Z,119
2018-09-12T06:50:03.835Z,119
2018-09-12T06:55:03.861Z,119
2018-09-12T07:00:03.850Z,119
2018-09-12T07:05:03.846Z,119
2018-09-12T07:10:03.853Z,119
2018-09-12T07:15:03.854Z,119
2018-09-12T07:20:03.853Z,119
2018-09-12T07:25:03.875Z,119
2018-09-12T07:30:03.854Z,119
2018-09-12T07:35:03.866Z,119
2018-09-12T07:40:03.869Z,119
2018-09-12T07:45:03.867Z,119
2018-09-12T07:50:03.867Z,119
2018-09-12T07:55:03.936Z,119
2018-09-12T08:00:04.086Z,119
2018-09-12T08:05:04.000Z,116.71
2018-09-12T08:10:04.221Z,103.97
2018-09-12T08:15:03.864Z,98.3
2018-09-12T08:20:03.889Z,98.95
2018-09-12T08:25:03.888Z,95.21
2018-09-12T08:30:03.900Z,80.12
2018-09-12T08:35:03.893Z,76.56
2018-09-12T08:40:03.893Z,74.18
2018-09-12T08:45:03.916Z,69.76
2018-09-12T08:50:03.906Z,73.4
2018-09-12T08:55:03.921Z,84.05
2018-09-12T09:00:03.915Z,87.37
2018-09-12T09:05:03.909Z,76.35
2018-09-12T09:10:03.912Z,65.47
2018-09-12T09:15:03.926Z,63.67
2018-09-12T09:20:03.919Z,65.5
2018-09-12T09:25:03.921Z,57.37
2018-09-12T09:30:03.927Z,51.42
2018-09-12T09:35:04.253Z,51.52
2018-09-12T09:40:03.924Z,57.15
2018-09-12T09:45:03.958Z,68.25
2018-09-12T09:50:03.929Z,75.67
2018-09-12T09:55:04.112Z,90.68
2018-09-12T10:00:03.946Z,97.02
2018-09-12T10:05:03.936Z,101.14
2018-09-12T10:10:03.945Z,98.01
2018-09-12T10:15:03.968Z,90.99
2018-09-12T10:20:03.947Z,85.79
2018-09-12T10:25:03.952Z,73.41
2018-09-12T10:30:03.973Z,55.74
2018-09-12T10:35:03.953Z,66.19
2018-09-12T10:40:03.957Z,82.85
2018-09-12T10:45:03.974Z,107.86
2018-09-12T10:50:03.970Z,117.19
2018-09-12T10:55:03.971Z,113.38
2018-09-12T11:00:04.061Z,119
2018-09-12T11:05:03.969Z,118.1
2018-09-12T11:10:03.976Z,113.66
2018-09-12T11:15:04.010Z,118.29
2018-09-12T11:20:03.983Z,119
2018-09-12T11:25:03.993Z,119
2018-09-12T11:30:03.995Z,119
2018-09-12T11:35:03.983Z,119
2018-09-12T11:40:04.056Z,119
2018-09-12T11:45:04.003Z,119
2018-09-12T11:50:03.991Z,119
2018-09-12T11:55:03.996Z,119
2018-09-12T12:00:04.020Z,119
2018-09-12T12:05:03.999Z,98.79
2018-09-12T12:10:04.012Z,101.52
2018-09-12T12:15:04.024Z,106.88
2018-09-12T12:20:04.016Z,103.62
2018-09-12T12:25:04.014Z,111.88
2018-09-12T12:30:04.022Z,119
2018-09-12T12:35:04.013Z,119
2018-09-12T12:40:04.028Z,119
2018-09-12T12:45:04.034Z,119
2018-09-12T12:50:04.025Z,119
2018-09-12T12:55:04.027Z,119
2018-09-12T13:00:04.079Z,119
2018-09-12T13:05:04.034Z,118.26
2018-09-12T13:10:04.039Z,119
2018-09-12T13:15:04.048Z,119
2018-09-12T13:20:04.052Z,119
2018-09-12T13:25:04.056Z,119
2018-09-12T13:30:04.056Z,119
2018-09-12T13:35:04.075Z,119
2018-09-12T13:40:04.068Z,119
2018-09-12T13:45:04.065Z,119
2018-09-12T13:50:04.074Z,119
2018-09-12T13:55:04.073Z,119
2018-09-12T14:00:04.084Z,119
2018-09-12T14:05:04.061Z,119
2018-09-12T14:10:04.082Z,119
2018-09-12T14:15:04.092Z,119
2018-09-12T14:20:04.079Z,119
2018-09-12T14:25:04.314Z,119
2018-09-12T14:30:04.093Z,119
2018-09-12T14:35:04.089Z,119
2018-09-12T14:40:04.086Z,119
2018-09-12T14:45:04.267Z,119
2018-09-12T14:50:04.091Z,119
2018-09-12T14:55:04.126Z,119
2018-09-12T15:00:04.110Z,119
2018-09-12T15:05:04.101Z,119
2018-09-12T15:10:04.104Z,119
2018-09-12T15:15:04.110Z,119
2018-09-12T15:20:04.129Z,119
2018-09-12T15:25:04.119Z,119
2018-09-12T15:30:04.117Z,119
2018-09-12T15:35:04.119Z,119
2018-09-12T15:40:04.130Z,119
2018-09-12T15:45:04.135Z,119
2018-09-12T15:50:04.168Z,119
2018-09-12T15:55:04.139Z,119
2018-09-12T16:00:04.164Z,119
2018-09-12T16:05:04.133Z,119
2018-09-12T16:10:04.133Z,119
2018-09-12T16:15:04.176Z,119
2018-09-12T16:20:04.165Z,119
2018-09-12T16:25:04.162Z,119
2018-09-12T16:30:04.159Z,119
2018-09-12T16:35:04.154Z,119
2018-09-12T16:40:04.313Z,119
2018-09-12T16:45:04.172Z,119
2018-09-12T16:50:04.152Z,119
2018-09-12T16:55:04.156Z,119
2018-09-12T17:00:04.166Z,119
2018-09-12T17:05:04.161Z,119
2018-09-12T17:10:04.171Z,119
2018-09-12T17:15:04.187Z,119
2018-09-12T17:20:04.258Z,119
2018-09-12T17:25:04.177Z,119
2018-09-12T17:30:04.293Z,119
2018-09-12T17:35:04.181Z,119
2018-09-12T17:40:04.184Z,119
2018-09-12T17:45:04.194Z,119
2018-09-12T17:50:04.198Z,119
2018-09-12T17:55:04.193Z,119
2018-09-12T18:00:04.215Z,119
2018-09-12T18:05:04.204Z,119
2018-09-12T18:10:04.200Z,119
2018-09-12T18:15:04.205Z,119
2018-09-12T18:20:04.219Z,119
2018-09-12T18:25:04.210Z,119
2018-09-12T18:30:04.208Z,119
2018-09-12T18:35:04.214Z,119
2018-09-12T18:40:04.223Z,119
2018-09-12T18:45:04.215Z,119
2018-09-12T18:50:04.221Z,119
2018-09-12T18:55:04.220Z,119
2018-09-12T19:00:04.239Z,119
2018-09-12T19:05:04.231Z,119
2018-09-12T19:10:04.226Z,119
2018-09-12T19:15:04.246Z,119
2018-09-12T19:20:04.239Z,119
2018-09-12T19:25:04.241Z,119
2018-09-12T19:30:04.249Z,119
2018-09-12T19:35:04.243Z,119
2018-09-12T19:40:04.245Z,119
2018-09-12T19:45:04.264Z,119
2018-09-12T19:50:04.257Z,119
2018-09-12T19:55:04.249Z,119
2018-09-12T20:00:04.268Z,119
2018-09-12T20:05:04.265Z,119
2018-09-12T20:10:04.259Z,119
2018-09-12T20:15:04.275Z,119
2018-09-12T20:20:04.267Z,119
2018-09-12T20:25:04.268Z,119
2018-09-12T20:30:04.516Z,119
2018-09-12T20:35:04.272Z,119
2018-09-12T20:40:04.281Z,119
2018-09-12T20:45:04.286Z,119
2018-09-12T20:50:04.285Z,119
2018-09-12T20:55:04.285Z,119
2018-09-12T21:00:04.296Z,119
2018-09-12T21:05:04.292Z,119
2018-09-12T21:10:04.290Z,119
2018-09-12T21:15:04.305Z,119
2018-09-12T21:20:04.305Z,119
2018-09-12T21:25:04.299Z,119
2018-09-12T21:30:04.328Z,119
2018-09-12T21:35:04.300Z,119
2018-09-12T21:40:04.306Z,119
2018-09-12T21:45:04.325Z,119
2018-09-12T21:50:04.312Z,119
2018-09-12T21:55:04.324Z,119
2018-09-12T22:00:04.327Z,119
2018-09-12T22:05:04.328Z,119
2018-09-12T22:10:04.325Z,119
2018-09-12T22:15:04.331Z,119
2018-09-12T22:20:04.332Z,119
2018-09-12T22:25:04.332Z,119
2018-09-12T22:30:04.341Z,119
2018-09-12T22:35:04.343Z,119
2018-09-12T22:40:04.339Z,119
2018-09-12T22:45:04.365Z,119
2018-09-12T22:50:04.348Z,119
2018-09-12T22:55:04.346Z,119
2018-09-12T23:00:04.354Z,119
2018-09-12T23:05:04.357Z,119
2018-09-12T23:10:04.358Z,119
2018-09-12T23:15:04.378Z,119
2018-09-12T23:20:04.360Z,119
2018-09-12T23:25:04.366Z,119
2018-09-12T23:30:04.374Z,119
2018-09-12T23:35:04.370Z,119
2018-09-12T23:40:04.373Z,119
2018-09-12T23:45:04.389Z,119
2018-09-12T23:50:04.377Z,119
2018-09-12T23:55:04.396Z,119
